createdAt,value
2019-03-30T00:01:25.281Z,7.93
2019-03-30T00:03:30.525Z,7.70
2019-03-30T00:05:35.921Z,8.03
2019-03-30T00:07:41.222Z,11.17
2019-03-30T00:09:48.082Z,9.60
2019-03-30T00:11:53.771Z,5.67
2019-03-30T00:13:59.142Z,9.37
2019-03-30T00:16:04.761Z,11.37
2019-03-30T00:18:10.263Z,7.37
2019-03-30T00:20:15.862Z,6.77
2019-03-30T00:22:22.123Z,10.37
2019-03-30T00:24:27.461Z,11.03
2019-03-30T00:26:33.002Z,11.33
2019-03-30T00:28:38.457Z,5.60
2019-03-30T00:30:43.981Z,10.63
2019-03-30T00:32:49.621Z,11.00
2019-03-30T00:34:54.961Z,10.43
2019-03-30T00:37:00.500Z,8.53
2019-03-30T00:39:07.620Z,13.13
2019-03-30T00:41:13.008Z,8.87
2019-03-30T00:43:18.376Z,9.33
2019-03-30T00:45:24.661Z,8.73
2019-03-30T00:47:30.042Z,6.60
2019-03-30T00:49:48.112Z,9.07
2019-03-30T00:51:42.475Z,8.50
2019-03-30T00:53:47.757Z,8.53
2019-03-30T00:55:54.552Z,9.13
2019-03-30T00:57:59.921Z,8.83
2019-03-30T01:00:05.885Z,8.23
2019-03-30T01:02:11.274Z,9.23
2019-03-30T01:04:16.850Z,9.67
2019-03-30T01:06:22.400Z,8.33
2019-03-30T01:08:27.969Z,10.33
2019-03-30T01:10:33.348Z,11.73
2019-03-30T01:12:38.660Z,6.43
2019-03-30T01:14:44.190Z,6.77
2019-03-30T01:16:49.660Z,7.47
2019-03-30T01:18:55.082Z,7.20
2019-03-30T01:21:02.241Z,4.90
2019-03-30T01:23:07.540Z,9.80
2019-03-30T01:25:13.221Z,7.10
2019-03-30T01:27:18.645Z,7.63
2019-03-30T01:29:24.201Z,6.80
2019-03-30T01:31:29.600Z,7.03
2019-03-30T01:33:35.080Z,6.77
2019-03-30T01:35:40.827Z,7.90
2019-03-30T01:37:46.155Z,7.47
2019-03-30T01:39:51.621Z,8.90
2019-03-30T01:41:56.951Z,7.83
2019-03-30T01:44:02.399Z,5.13
2019-03-30T01:46:07.927Z,6.17
2019-03-30T01:48:13.230Z,6.00
2019-03-30T01:50:18.583Z,7.43
2019-03-30T01:52:23.816Z,5.70
2019-03-30T01:54:29.197Z,7.77
2019-03-30T01:56:34.728Z,7.70
2019-03-30T01:58:40.099Z,6.53
2019-03-30T02:00:45.755Z,8.40
2019-03-30T02:02:51.240Z,5.90
2019-03-30T02:04:56.479Z,5.90
2019-03-30T02:07:01.820Z,7.57
2019-03-30T02:09:07.501Z,6.80
2019-03-30T02:11:12.872Z,9.57
2019-03-30T02:13:18.335Z,6.97
2019-03-30T02:15:23.744Z,6.97
2019-03-30T02:17:29.041Z,6.37
2019-03-30T02:19:34.486Z,6.90
2019-03-30T02:21:39.805Z,7.07
2019-03-30T02:23:45.159Z,7.23
2019-03-30T02:25:50.461Z,5.33
2019-03-30T02:27:57.006Z,5.93
2019-03-30T02:30:02.340Z,6.93
2019-03-30T02:32:09.160Z,5.53
2019-03-30T02:34:14.559Z,8.50
2019-03-30T02:36:22.541Z,8.80
2019-03-30T02:38:29.200Z,5.37
2019-03-30T02:40:34.709Z,8.80
2019-03-30T02:42:41.021Z,5.70
2019-03-30T02:44:46.360Z,6.00
2019-03-30T02:46:51.720Z,10.50
2019-03-30T02:48:57.140Z,8.30
2019-03-30T02:51:02.673Z,7.33
2019-03-30T02:53:08.081Z,5.33
2019-03-30T02:55:13.502Z,8.30
2019-03-30T02:57:18.995Z,6.60
2019-03-30T02:59:24.365Z,9.10
2019-03-30T03:01:29.785Z,8.67
2019-03-30T03:03:35.166Z,6.43
2019-03-30T03:05:40.652Z,7.77
2019-03-30T03:07:46.041Z,8.87
2019-03-30T03:09:51.355Z,5.70
2019-03-30T03:11:56.568Z,6.83
2019-03-30T03:14:02.092Z,5.70
2019-03-30T03:16:09.272Z,5.33
2019-03-30T03:18:14.684Z,6.60
2019-03-30T03:20:19.997Z,6.23
2019-03-30T03:22:25.289Z,4.97
2019-03-30T03:24:30.627Z,5.20
2019-03-30T03:26:35.890Z,4.90
2019-03-30T03:28:41.187Z,6.23
2019-03-30T03:30:46.463Z,5.57
2019-03-30T03:32:52.174Z,5.37
2019-03-30T03:34:58.673Z,6.30
2019-03-30T03:37:05.311Z,4.97
2019-03-30T03:39:10.618Z,10.40
2019-03-30T03:41:16.069Z,6.30
2019-03-30T03:43:21.409Z,8.03
2019-03-30T03:45:26.797Z,6.63
2019-03-30T03:47:32.206Z,6.17
2019-03-30T03:49:37.472Z,7.00
2019-03-30T03:51:42.819Z,7.37
2019-03-30T03:53:48.307Z,8.83
2019-03-30T03:55:55.989Z,5.27
2019-03-30T03:58:02.605Z,5.83
2019-03-30T04:00:08.617Z,4.00
2019-03-30T04:02:13.876Z,4.70
2019-03-30T04:04:20.984Z,6.33
2019-03-30T04:06:26.476Z,4.17
2019-03-30T04:08:32.741Z,7.47
2019-03-30T04:10:39.048Z,5.47
2019-03-30T04:12:44.633Z,5.17
2019-03-30T04:14:52.747Z,4.97
2019-03-30T04:16:57.955Z,6.13
2019-03-30T04:19:03.334Z,5.10
2019-03-30T04:21:09.691Z,6.50
2019-03-30T04:23:15.070Z,4.77
2019-03-30T04:25:20.408Z,5.23
2019-03-30T04:27:25.695Z,7.37
2019-03-30T04:29:31.074Z,6.67
2019-03-30T04:31:36.589Z,6.63
2019-03-30T04:33:42.017Z,8.77
2019-03-30T04:35:47.381Z,6.10
2019-03-30T04:37:52.797Z,18.70
2019-03-30T04:39:58.266Z,4.27
2019-03-30T04:42:03.670Z,5.67
2019-03-30T04:44:08.972Z,5.20
2019-03-30T04:46:14.351Z,6.63
2019-03-30T04:48:19.726Z,6.67
2019-03-30T04:50:25.094Z,6.97
2019-03-30T04:52:30.531Z,8.90
2019-03-30T04:54:35.882Z,7.73
2019-03-30T04:56:41.249Z,11.10
2019-03-30T04:58:46.585Z,5.80
2019-03-30T05:00:52.038Z,4.90
2019-03-30T05:02:57.501Z,3.47
2019-03-30T05:05:03.020Z,6.13
2019-03-30T05:07:08.270Z,5.87
2019-03-30T05:09:13.671Z,7.17
2019-03-30T05:11:18.970Z,8.07
2019-03-30T05:13:24.307Z,5.40
2019-03-30T05:15:29.705Z,5.00
2019-03-30T05:17:46.829Z,6.30
2019-03-30T05:19:42.237Z,6.10
2019-03-30T05:21:47.587Z,5.30
2019-03-30T05:23:52.788Z,7.17
2019-03-30T05:25:58.245Z,5.50
2019-03-30T05:28:03.651Z,5.07
2019-03-30T05:30:09.238Z,4.77
2019-03-30T05:32:14.565Z,15.57
2019-03-30T05:34:19.916Z,5.67
2019-03-30T05:36:25.558Z,5.43
2019-03-30T05:38:30.996Z,7.17
2019-03-30T05:40:36.355Z,4.83
2019-03-30T05:42:42.988Z,6.20
2019-03-30T05:44:48.458Z,5.67
2019-03-30T05:46:53.766Z,4.87
2019-03-30T05:49:01.360Z,8.23
2019-03-30T05:51:06.605Z,10.30
2019-03-30T05:53:11.976Z,4.70
2019-03-30T05:55:17.323Z,4.30
2019-03-30T05:57:22.606Z,6.57
2019-03-30T05:59:27.985Z,5.93
2019-03-30T06:01:33.490Z,9.37
2019-03-30T06:03:38.985Z,5.60
2019-03-30T06:05:44.245Z,6.73
2019-03-30T06:07:49.722Z,8.23
2019-03-30T06:09:56.106Z,5.40
2019-03-30T06:12:01.617Z,13.13
2019-03-30T06:14:07.021Z,8.53
2019-03-30T06:16:12.457Z,5.73
2019-03-30T06:18:17.887Z,9.67
2019-03-30T06:20:23.319Z,6.00
2019-03-30T06:22:39.767Z,6.77
2019-03-30T06:24:36.980Z,6.03
2019-03-30T06:26:43.566Z,6.67
2019-03-30T06:28:51.010Z,15.17
2019-03-30T06:30:56.419Z,15.00
2019-03-30T06:33:03.388Z,7.80
2019-03-30T06:35:08.727Z,8.00
2019-03-30T06:37:14.272Z,10.00
2019-03-30T06:39:19.690Z,6.83
2019-03-30T06:41:25.061Z,12.13
2019-03-30T06:43:30.508Z,13.10
2019-03-30T06:45:35.756Z,15.83
2019-03-30T06:47:41.266Z,14.83
2019-03-30T06:49:46.736Z,7.80
2019-03-30T06:51:52.117Z,9.10
2019-03-30T06:53:57.635Z,16.10
2019-03-30T06:56:02.963Z,12.33
2019-03-30T06:58:12.580Z,11.43
2019-03-30T07:00:22.683Z,10.87
2019-03-30T07:02:28.177Z,9.17
2019-03-30T07:04:34.277Z,10.90
2019-03-30T07:06:39.930Z,13.47
2019-03-30T07:08:46.075Z,12.20
2019-03-30T07:10:52.521Z,14.20
2019-03-30T07:12:57.944Z,9.07
2019-03-30T07:15:07.384Z,8.03
2019-03-30T07:17:13.252Z,7.97
2019-03-30T07:19:18.900Z,10.90
2019-03-30T07:21:25.117Z,10.73
2019-03-30T07:23:31.171Z,7.93
2019-03-30T07:25:36.521Z,9.67
2019-03-30T07:27:43.415Z,11.90
2019-03-30T07:29:48.736Z,15.77
2019-03-30T07:31:54.061Z,9.77
2019-03-30T07:34:00.480Z,10.97
2019-03-30T07:36:06.597Z,9.63
2019-03-30T07:38:11.923Z,13.90
2019-03-30T07:40:18.402Z,21.40
2019-03-30T07:42:23.712Z,14.17
2019-03-30T07:44:29.037Z,17.37
2019-03-30T07:46:34.471Z,18.30
2019-03-30T07:48:40.057Z,11.80
2019-03-30T07:50:46.465Z,17.57
2019-03-30T07:52:51.715Z,13.90
2019-03-30T07:54:57.059Z,13.47
2019-03-30T07:57:07.098Z,6.37
2019-03-30T07:59:09.402Z,13.10
2019-03-30T08:01:15.557Z,13.87
2019-03-30T08:03:21.608Z,10.70
2019-03-30T08:05:26.965Z,7.77
2019-03-30T08:07:32.442Z,13.67
2019-03-30T08:09:37.776Z,7.83
2019-03-30T08:11:43.148Z,10.30
2019-03-30T08:13:48.555Z,8.53
2019-03-30T08:15:53.964Z,9.20
2019-03-30T08:17:59.411Z,9.07
2019-03-30T08:20:05.689Z,11.50
2019-03-30T08:22:11.384Z,11.03
2019-03-30T08:24:17.732Z,12.17
2019-03-30T08:26:23.197Z,10.87
2019-03-30T08:28:30.182Z,9.77
2019-03-30T08:30:35.565Z,7.93
2019-03-30T08:32:41.218Z,8.33
2019-03-30T08:34:46.556Z,18.00
2019-03-30T08:36:52.067Z,15.60
2019-03-30T08:38:57.488Z,16.20
2019-03-30T08:41:03.077Z,14.90
2019-03-30T08:43:08.439Z,17.00
2019-03-30T08:45:15.316Z,16.80
2019-03-30T08:47:20.899Z,15.30
2019-03-30T08:49:26.324Z,13.53
2019-03-30T08:51:32.085Z,12.33
2019-03-30T08:53:37.846Z,17.80
2019-03-30T08:55:43.262Z,15.57
2019-03-30T08:58:05.399Z,12.13
2019-03-30T09:00:11.019Z,12.03
2019-03-30T09:02:16.425Z,13.67
2019-03-30T09:04:21.713Z,14.50
2019-03-30T09:06:27.136Z,15.33
2019-03-30T09:08:32.591Z,9.17
2019-03-30T09:10:37.896Z,13.53
2019-03-30T09:12:43.264Z,18.77
2019-03-30T09:14:48.654Z,18.97
2019-03-30T09:16:54.152Z,19.70
2019-03-30T09:18:59.583Z,15.57
2019-03-30T09:21:05.256Z,18.97
2019-03-30T09:23:10.763Z,20.03
2019-03-30T09:25:16.320Z,17.03
2019-03-30T09:27:21.772Z,10.70
2019-03-30T09:29:27.236Z,10.93
2019-03-30T09:31:34.807Z,13.13
2019-03-30T09:33:40.458Z,19.63
2019-03-30T09:35:45.981Z,23.37
2019-03-30T09:37:57.763Z,13.50
2019-03-30T09:40:06.276Z,17.47
2019-03-30T09:42:11.663Z,13.37
2019-03-30T09:44:20.616Z,11.23
2019-03-30T09:46:28.100Z,13.40
2019-03-30T09:48:33.525Z,14.73
2019-03-30T09:50:38.921Z,15.70
2019-03-30T09:52:44.330Z,17.87
2019-03-30T09:54:49.837Z,15.93
2019-03-30T09:56:55.166Z,11.97
2019-03-30T09:59:00.824Z,17.23
2019-03-30T10:01:06.166Z,17.77
2019-03-30T10:03:13.018Z,17.00
2019-03-30T10:05:18.557Z,9.27
2019-03-30T10:07:24.877Z,15.90
2019-03-30T10:09:32.537Z,13.93
2019-03-30T10:11:38.270Z,11.40
2019-03-30T10:13:43.968Z,21.57
2019-03-30T10:15:49.327Z,12.10
2019-03-30T10:17:54.704Z,15.07
2019-03-30T10:20:04.500Z,14.67
2019-03-30T10:22:12.368Z,10.73
2019-03-30T10:24:37.115Z,14.33
2019-03-30T10:26:31.317Z,14.63
2019-03-30T10:28:36.631Z,16.17
2019-03-30T10:30:43.197Z,13.63
2019-03-30T10:32:50.906Z,12.93
2019-03-30T10:34:57.573Z,10.57
2019-03-30T10:37:04.160Z,11.37
2019-03-30T10:39:09.581Z,12.40
2019-03-30T10:41:15.447Z,13.67
2019-03-30T10:43:20.874Z,16.03
2019-03-30T10:45:26.462Z,10.87
2019-03-30T10:47:34.497Z,7.87
2019-03-30T10:49:39.830Z,11.83
2019-03-30T10:51:45.282Z,13.03
2019-03-30T10:53:50.708Z,11.87
2019-03-30T10:55:57.305Z,11.37
2019-03-30T10:58:02.626Z,10.07
2019-03-30T11:00:09.628Z,14.00
2019-03-30T11:02:16.364Z,12.07
2019-03-30T11:04:21.844Z,13.00
2019-03-30T11:06:27.181Z,14.60
2019-03-30T11:08:32.600Z,16.93
2019-03-30T11:10:39.763Z,22.27
2019-03-30T11:12:45.202Z,25.57
2019-03-30T11:14:51.200Z,19.23
2019-03-30T11:16:56.577Z,20.80
2019-03-30T11:19:02.058Z,17.90
2019-03-30T11:21:08.516Z,17.67
2019-03-30T11:23:13.847Z,17.73
2019-03-30T11:25:20.409Z,13.50
2019-03-30T11:27:25.940Z,17.53
2019-03-30T11:29:31.183Z,14.60
2019-03-30T11:31:36.585Z,18.57
2019-03-30T11:33:41.949Z,19.30
2019-03-30T11:35:47.618Z,11.90
2019-03-30T11:37:53.515Z,12.97
2019-03-30T11:39:59.609Z,21.37
2019-03-30T11:42:04.961Z,13.77
2019-03-30T11:44:11.220Z,16.27
2019-03-30T11:46:16.967Z,13.57
2019-03-30T11:48:22.296Z,15.47
2019-03-30T11:50:28.120Z,14.40
2019-03-30T11:52:34.900Z,18.40
2019-03-30T11:54:41.306Z,24.90
2019-03-30T11:56:46.696Z,15.73
2019-03-30T11:58:54.775Z,17.97
2019-03-30T12:01:01.364Z,17.20
2019-03-30T12:03:06.774Z,15.90
2019-03-30T12:05:13.216Z,13.03
2019-03-30T12:07:19.275Z,17.10
2019-03-30T12:09:25.286Z,17.60
2019-03-30T12:11:31.827Z,17.03
2019-03-30T12:13:37.624Z,17.23
2019-03-30T12:15:42.999Z,13.23
2019-03-30T12:17:48.508Z,13.27
2019-03-30T12:19:53.839Z,15.27
2019-03-30T12:22:00.396Z,14.67
2019-03-30T12:24:05.771Z,15.10
2019-03-30T12:26:11.297Z,19.23
2019-03-30T12:28:16.630Z,18.10
2019-03-30T12:30:22.205Z,18.67
2019-03-30T12:32:27.926Z,15.00
2019-03-30T12:34:33.847Z,13.50
2019-03-30T12:36:39.281Z,16.13
2019-03-30T12:38:44.640Z,11.93
2019-03-30T12:40:50.000Z,17.70
2019-03-30T12:42:55.332Z,16.50
2019-03-30T12:45:02.282Z,14.27
2019-03-30T12:47:10.385Z,17.77
2019-03-30T12:49:15.861Z,14.60
2019-03-30T12:51:21.289Z,19.67
2019-03-30T12:53:26.596Z,16.73
2019-03-30T12:55:32.081Z,16.30
2019-03-30T12:57:37.539Z,15.70
2019-03-30T12:59:42.981Z,23.37
2019-03-30T13:01:48.302Z,23.13
2019-03-30T13:03:53.945Z,16.97
2019-03-30T13:05:59.358Z,17.90
2019-03-30T13:08:04.840Z,20.23
2019-03-30T13:10:10.219Z,23.10
2019-03-30T13:12:16.624Z,24.80
2019-03-30T13:14:23.048Z,24.47
2019-03-30T13:16:28.360Z,21.07
2019-03-30T13:18:33.620Z,17.87
2019-03-30T13:20:39.459Z,22.33
2019-03-30T13:22:46.102Z,20.37
2019-03-30T13:24:51.441Z,19.67
2019-03-30T13:26:59.463Z,19.80
2019-03-30T13:29:04.878Z,15.97
2019-03-30T13:31:10.266Z,20.97
2019-03-30T13:33:15.607Z,20.33
2019-03-30T13:35:22.625Z,20.67
2019-03-30T13:37:28.045Z,15.03
2019-03-30T13:39:33.445Z,14.80
2019-03-30T13:41:39.928Z,19.47
2019-03-30T13:43:45.259Z,19.07
2019-03-30T13:45:50.709Z,19.40
2019-03-30T13:47:56.228Z,17.37
2019-03-30T13:50:01.645Z,19.27
2019-03-30T13:52:07.181Z,15.33
2019-03-30T13:54:12.566Z,18.10
2019-03-30T13:56:17.943Z,12.73
2019-03-30T13:58:23.291Z,19.83
2019-03-30T14:00:28.628Z,13.43
2019-03-30T14:02:34.016Z,19.20
2019-03-30T14:04:39.661Z,13.43
2019-03-30T14:06:45.100Z,12.47
2019-03-30T14:08:50.488Z,14.50
2019-03-30T14:10:55.921Z,16.87
2019-03-30T14:13:01.273Z,16.57
2019-03-30T14:15:09.321Z,14.83
2019-03-30T14:17:14.845Z,13.67
2019-03-30T14:19:21.162Z,14.30
2019-03-30T14:21:26.590Z,14.13
2019-03-30T14:23:32.459Z,12.00
2019-03-30T14:25:37.789Z,10.47
2019-03-30T14:27:43.126Z,14.03
2019-03-30T14:29:48.486Z,12.27
2019-03-30T14:31:54.029Z,15.77
2019-03-30T14:33:59.411Z,10.97
2019-03-30T14:36:06.738Z,10.60
2019-03-30T14:38:11.931Z,11.97
2019-03-30T14:40:17.297Z,12.27
2019-03-30T14:42:22.588Z,9.50
2019-03-30T14:44:28.038Z,8.47
2019-03-30T14:46:33.594Z,11.47
2019-03-30T14:48:39.029Z,12.40
2019-03-30T14:50:44.528Z,9.60
2019-03-30T14:52:49.836Z,9.93
2019-03-30T14:54:55.362Z,9.30
2019-03-30T14:57:00.955Z,15.37
2019-03-30T14:59:10.482Z,11.83
2019-03-30T15:01:13.350Z,11.30
2019-03-30T15:03:18.799Z,9.47
2019-03-30T15:05:24.473Z,11.80
2019-03-30T15:07:30.200Z,10.63
2019-03-30T15:09:35.548Z,12.33
2019-03-30T15:11:40.941Z,9.80
2019-03-30T15:13:46.528Z,10.30
2019-03-30T15:15:51.931Z,9.80
2019-03-30T15:17:57.292Z,10.13
2019-03-30T15:20:02.843Z,9.53
2019-03-30T15:22:09.710Z,11.33
2019-03-30T15:24:15.240Z,8.37
2019-03-30T15:26:22.192Z,10.53
2019-03-30T15:28:27.619Z,7.77
2019-03-30T15:30:33.128Z,10.97
2019-03-30T15:32:38.570Z,11.40
2019-03-30T15:34:43.847Z,10.67
2019-03-30T15:36:49.133Z,9.93
2019-03-30T15:38:54.588Z,12.77
2019-03-30T15:40:59.965Z,10.50
2019-03-30T15:43:05.415Z,8.60
2019-03-30T15:45:10.789Z,9.17
2019-03-30T15:47:16.221Z,10.50
2019-03-30T15:49:22.675Z,10.60
2019-03-30T15:51:28.248Z,9.70
2019-03-30T15:53:33.577Z,9.23
2019-03-30T15:55:38.929Z,10.93
2019-03-30T15:57:44.351Z,10.97
2019-03-30T15:59:49.792Z,11.30
2019-03-30T16:01:55.191Z,9.70
2019-03-30T16:04:03.127Z,10.73
2019-03-30T16:06:08.648Z,11.00
2019-03-30T16:08:14.258Z,12.33
2019-03-30T16:10:21.283Z,8.67
2019-03-30T16:12:26.767Z,10.93
2019-03-30T16:14:32.191Z,11.57
2019-03-30T16:16:37.626Z,9.97
2019-03-30T16:18:43.165Z,8.50
2019-03-30T16:20:49.935Z,9.30
2019-03-30T16:22:57.805Z,9.97
2019-03-30T16:25:04.107Z,7.53
2019-03-30T16:27:09.361Z,10.60
2019-03-30T16:29:14.655Z,7.43
2019-03-30T16:31:21.030Z,8.80
2019-03-30T16:33:26.432Z,9.63
2019-03-30T16:35:31.717Z,12.17
2019-03-30T16:37:37.108Z,9.10
2019-03-30T16:39:43.577Z,9.13
2019-03-30T16:41:48.949Z,8.37
2019-03-30T16:43:54.353Z,9.13
2019-03-30T16:46:00.169Z,8.97
2019-03-30T16:48:05.646Z,9.13
2019-03-30T16:50:12.306Z,7.93
2019-03-30T16:52:17.708Z,6.80
2019-03-30T16:54:23.995Z,9.53
2019-03-30T16:56:29.402Z,9.00
2019-03-30T16:58:34.763Z,6.80
2019-03-30T17:00:55.316Z,8.27
2019-03-30T17:02:47.557Z,8.77
2019-03-30T17:04:53.008Z,6.63
2019-03-30T17:06:58.448Z,7.67
2019-03-30T17:09:04.899Z,8.57
2019-03-30T17:11:10.348Z,10.67
2019-03-30T17:13:15.787Z,8.53
2019-03-30T17:15:21.224Z,6.53
2019-03-30T17:17:26.679Z,8.63
2019-03-30T17:19:31.969Z,9.60
2019-03-30T17:21:37.398Z,9.30
2019-03-30T17:23:42.780Z,7.87
2019-03-30T17:25:48.142Z,9.23
2019-03-30T17:27:58.621Z,8.40
2019-03-30T17:30:01.741Z,10.67
2019-03-30T17:32:08.815Z,7.57
2019-03-30T17:34:14.935Z,7.93
2019-03-30T17:36:21.095Z,8.33
2019-03-30T17:38:26.683Z,7.03
2019-03-30T17:40:35.955Z,8.97
2019-03-30T17:42:44.420Z,7.97
2019-03-30T17:44:50.092Z,8.17
2019-03-30T17:46:57.344Z,8.63
2019-03-30T17:49:04.540Z,7.83
2019-03-30T17:51:10.909Z,9.83
2019-03-30T17:53:17.462Z,7.73
2019-03-30T17:55:33.576Z,8.43
2019-03-30T17:57:31.837Z,9.73
2019-03-30T17:59:38.096Z,7.20
2019-03-30T18:01:44.644Z,10.40
2019-03-30T18:03:50.585Z,8.77
2019-03-30T18:06:05.694Z,8.10
2019-03-30T18:08:19.160Z,9.07
2019-03-30T18:10:33.027Z,7.97
2019-03-30T18:12:48.435Z,9.13
2019-03-30T18:15:01.575Z,8.17
2019-03-30T18:17:09.213Z,10.03
2019-03-30T18:19:19.308Z,8.20
2019-03-30T18:21:31.428Z,9.63
2019-03-30T18:23:37.284Z,11.20
2019-03-30T18:25:46.983Z,8.33
2019-03-30T18:28:02.128Z,7.53
2019-03-30T18:30:08.424Z,6.20
2019-03-30T18:32:14.433Z,8.03
2019-03-30T18:34:20.973Z,7.30
2019-03-30T18:36:33.344Z,7.03
2019-03-30T18:38:41.008Z,9.87
2019-03-30T18:40:48.181Z,7.93
2019-03-30T18:42:54.177Z,8.80
2019-03-30T18:44:59.564Z,7.50
2019-03-30T18:47:05.155Z,9.37
2019-03-30T18:49:10.561Z,7.57
2019-03-30T18:51:15.938Z,7.17
2019-03-30T18:53:21.348Z,7.37
2019-03-30T18:55:28.539Z,7.47
2019-03-30T18:57:33.996Z,8.47
2019-03-30T18:59:39.328Z,8.43
2019-03-30T19:01:44.571Z,6.57
2019-03-30T19:03:49.918Z,9.43
2019-03-30T19:05:55.199Z,8.20
2019-03-30T19:08:00.703Z,8.33
2019-03-30T19:10:06.134Z,9.97
2019-03-30T19:12:11.668Z,9.77
2019-03-30T19:14:18.893Z,10.17
2019-03-30T19:16:24.360Z,9.43
2019-03-30T19:18:29.956Z,8.70
2019-03-30T19:20:35.496Z,7.73
2019-03-30T19:22:42.263Z,7.50
2019-03-30T19:24:47.644Z,8.03
2019-03-30T19:26:53.076Z,10.07
2019-03-30T19:28:58.489Z,8.93
2019-03-30T19:31:03.991Z,11.63
2019-03-30T19:33:09.576Z,7.53
2019-03-30T19:35:15.163Z,7.07
2019-03-30T19:37:20.716Z,7.50
2019-03-30T19:39:26.332Z,19.60
2019-03-30T19:41:31.830Z,16.57
2019-03-30T19:43:37.438Z,19.53
2019-03-30T19:45:44.095Z,20.23
2019-03-30T19:47:49.683Z,21.20
2019-03-30T19:49:55.238Z,18.03
2019-03-30T19:52:00.771Z,25.87
2019-03-30T19:54:06.263Z,18.80
2019-03-30T19:56:13.515Z,24.13
2019-03-30T19:58:18.982Z,24.70
2019-03-30T20:00:24.422Z,28.23
2019-03-30T20:02:29.883Z,27.67
2019-03-30T20:04:35.259Z,29.60
2019-03-30T20:06:40.655Z,20.90
2019-03-30T20:08:47.137Z,22.47
2019-03-30T20:10:52.383Z,23.50
2019-03-30T20:12:58.155Z,27.47
2019-03-30T20:15:03.630Z,26.27
2019-03-30T20:17:09.044Z,24.13
2019-03-30T20:19:14.662Z,25.60
2019-03-30T20:21:20.092Z,25.20
2019-03-30T20:23:25.437Z,17.67
2019-03-30T20:25:30.874Z,22.73
2019-03-30T20:27:36.241Z,20.57
2019-03-30T20:29:41.660Z,23.93
2019-03-30T20:31:47.464Z,18.33
2019-03-30T20:33:52.860Z,21.67
2019-03-30T20:35:58.302Z,18.67
2019-03-30T20:38:04.485Z,24.13
2019-03-30T20:40:11.663Z,19.53
2019-03-30T20:42:50.698Z,17.27
2019-03-30T20:44:58.733Z,20.20
2019-03-30T20:47:04.130Z,16.97
2019-03-30T20:49:11.122Z,20.90
2019-03-30T20:51:16.504Z,21.70
2019-03-30T20:53:21.883Z,20.27
2019-03-30T20:55:28.560Z,26.27
2019-03-30T20:57:34.105Z,24.10
2019-03-30T20:59:40.607Z,20.00
2019-03-30T21:01:46.106Z,22.47
2019-03-30T21:03:51.711Z,19.80
2019-03-30T21:05:57.101Z,21.83
2019-03-30T21:08:06.745Z,27.63
2019-03-30T21:10:15.333Z,25.60
2019-03-30T21:12:22.157Z,21.23
2019-03-30T21:14:33.774Z,25.53
2019-03-30T21:16:43.214Z,24.40
2019-03-30T21:18:57.716Z,22.37
2019-03-30T21:21:09.377Z,22.33
2019-03-30T21:23:15.919Z,27.77
2019-03-30T21:25:23.108Z,21.67
2019-03-30T21:27:35.802Z,22.53
2019-03-30T21:29:54.627Z,23.93
2019-03-30T21:32:00.959Z,18.00
2019-03-30T21:34:16.124Z,18.30
2019-03-30T21:36:30.242Z,20.83
2019-03-30T21:38:45.036Z,23.70
2019-03-30T21:40:57.889Z,23.10
2019-03-30T21:43:12.018Z,18.27
2019-03-30T21:45:25.530Z,20.80
2019-03-30T21:47:41.318Z,28.60
2019-03-30T21:49:57.033Z,21.00
2019-03-30T21:52:04.841Z,19.07
2019-03-30T21:54:15.841Z,17.77
2019-03-30T21:56:30.194Z,18.07
2019-03-30T21:58:43.374Z,18.23
2019-03-30T22:00:48.762Z,17.03
2019-03-30T22:02:54.727Z,17.03
2019-03-30T22:05:00.191Z,18.67
2019-03-30T22:07:07.548Z,17.47
2019-03-30T22:09:15.373Z,17.87
2019-03-30T22:11:22.259Z,17.87
2019-03-30T22:13:32.206Z,22.30
2019-03-30T22:15:37.552Z,20.80
2019-03-30T22:17:43.031Z,23.43
2019-03-30T22:19:48.505Z,18.43
2019-03-30T22:21:53.915Z,29.23
2019-03-30T22:23:59.419Z,22.63
2019-03-30T22:26:04.881Z,18.77
2019-03-30T22:28:10.313Z,20.13
2019-03-30T22:30:24.615Z,21.50
2019-03-30T22:32:23.059Z,17.47
2019-03-30T22:34:28.357Z,19.20
2019-03-30T22:36:33.838Z,19.87
2019-03-30T22:38:39.279Z,19.53
2019-03-30T22:40:46.035Z,15.53
2019-03-30T22:42:51.360Z,17.47
2019-03-30T22:44:56.719Z,17.83
2019-03-30T22:47:02.018Z,20.03
2019-03-30T22:49:07.319Z,15.70
2019-03-30T22:51:12.722Z,17.17
2019-03-30T22:53:18.023Z,21.90
2019-03-30T22:55:23.375Z,19.57
2019-03-30T22:57:28.859Z,20.50
2019-03-30T22:59:34.316Z,19.30
2019-03-30T23:01:39.661Z,19.87
2019-03-30T23:03:45.618Z,17.97
2019-03-30T23:05:51.020Z,15.93
2019-03-30T23:07:56.579Z,16.23
2019-03-30T23:10:01.946Z,16.47
2019-03-30T23:12:07.352Z,22.03
2019-03-30T23:14:12.740Z,19.70
2019-03-30T23:16:18.227Z,17.80
2019-03-30T23:18:23.670Z,20.13
2019-03-30T23:20:29.103Z,21.20
2019-03-30T23:22:34.483Z,26.20
2019-03-30T23:24:40.904Z,17.67
2019-03-30T23:26:47.845Z,21.30
2019-03-30T23:28:53.270Z,19.93
2019-03-30T23:30:58.654Z,22.97
2019-03-30T23:33:04.100Z,19.57
2019-03-30T23:35:09.684Z,21.20
2019-03-30T23:37:15.294Z,17.37
2019-03-30T23:39:20.742Z,23.13
2019-03-30T23:41:26.076Z,17.43
2019-03-30T23:43:31.486Z,21.00
2019-03-30T23:45:36.837Z,21.97
2019-03-30T23:47:42.202Z,21.93
2019-03-30T23:49:47.570Z,31.63
2019-03-30T23:51:52.890Z,18.53
2019-03-30T23:53:58.363Z,18.70
2019-03-30T23:56:05.175Z,22.67
2019-03-30T23:58:10.388Z,21.53
